PWSweather.com
Personal Weather Stations
Station Observations
MARRWS
Allansford VictoriaAU 3277

Allansford VictoriaAU 3277

Lat: -38.4003683814149, Lon: 142.569826841354

Elevation: 36

Station Type: Fine Offset X7062

http://home.vicnet.net.au/~marr/Weather/

Latest ConditionsUpdated 7:50:01 PM GMT+10:10 Tuesday, Feb 28, 2017
Currently Today's Max Today's Min Today's Average
Temperature 77.2°F25.1°C 95.0°F35.0°C 61.7°F16.5°C 79.1°F26.2°C
Dew Point 52.3°F11.3°C 60.6°F15.9°C 48.3°F9.1°C 55.9°F13.3°C
Winds 1.6 mph SE2.6 kmh SE 7.8 mph SE12.6 kmh SE - 2.9 mph 4.7 kmh
Wind Gusts 3.8 mph6.1 kmh 15.2 mph24.5 kmh - -
Humidity 42% 84% 23% 50%
Pressure 30.18 in1022.0 mb 30.22 in1023.4 mb 30.13 in1020.3 mb -
Hour Temp Dew Point Humidity Winds Wind Gusts Pressure Precip Precip Rate Daily Precip Total
07:50 PM 77.2°F25.1°C 52.3°F11.3°C 42% 1.6 mph SE2.6 kmh SE 3.8 mph6.1 kmh 30.18 in1022.0 mb 0.00 in0.0 mm 0.00 in0.0 mm 0.00 in0.0 mm
07:40 PM 77.4°F25.2°C 51.9°F11.1°C 41% 1.0 mph SE1.6 kmh SE 3.8 mph6.1 kmh 30.18 in1022.0 mb 0.00 in0.0 mm 0.00 in0.0 mm 0.00 in0.0 mm
07:30 PM 77.9°F25.5°C 53.0°F11.7°C 42% 1.0 mph SE1.6 kmh SE 5.4 mph8.7 kmh 30.17 in1021.7 mb 0.00 in0.0 mm 0.00 in0.0 mm 0.00 in0.0 mm
07:20 PM 79.0°F26.1°C 52.6°F11.4°C 40% 1.4 mph E2.3 kmh E 5.4 mph8.7 kmh 30.17 in1021.7 mb 0.00 in0.0 mm 0.00 in0.0 mm 0.00 in0.0 mm
07:10 PM 79.9°F26.6°C 52.8°F11.6°C 39% 1.5 mph E2.4 kmh E 3.8 mph6.1 kmh 30.17 in1021.7 mb 0.00 in0.0 mm 0.00 in0.0 mm 0.00 in0.0 mm
07:00 PM 81.5°F27.5°C 52.8°F11.6°C 37% 2.5 mph ESE4.0 kmh ESE 6.0 mph9.7 kmh 30.16 in1021.3 mb 0.00 in0.0 mm 0.00 in0.0 mm 0.00 in0.0 mm
06:50 PM 83.7°F28.7°C 52.4°F11.3°C 34% 2.8 mph SE4.5 kmh SE 8.3 mph13.4 kmh 30.16 in1021.3 mb 0.00 in0.0 mm 0.00 in0.0 mm 0.00 in0.0 mm
06:40 PM 85.3°F29.6°C 52.1°F11.2°C 32% 3.7 mph ESE6.0 kmh ESE 8.3 mph13.4 kmh 30.15 in1021.0 mb 0.00 in0.0 mm 0.00 in0.0 mm 0.00 in0.0 mm
06:30 PM 86.4°F30.2°C 52.2°F11.2°C 31% 3.2 mph E5.1 kmh E 8.3 mph13.4 kmh 30.15 in1021.0 mb 0.00 in0.0 mm 0.00 in0.0 mm 0.00 in0.0 mm
06:20 PM 87.1°F30.6°C 51.9°F11.1°C 30% 4.0 mph ESE6.4 kmh ESE 11.4 mph18.3 kmh 30.14 in1020.7 mb 0.00 in0.0 mm 0.00 in0.0 mm 0.00 in0.0 mm
06:10 PM 87.8°F31.0°C 51.6°F10.9°C 29% 4.5 mph SE7.2 kmh SE 9.8 mph15.8 kmh 30.14 in1020.7 mb 0.00 in0.0 mm 0.00 in0.0 mm 0.00 in0.0 mm
06:00 PM 88.2°F31.2°C 51.0°F10.6°C 28% 5.1 mph ESE8.2 kmh ESE 9.8 mph15.8 kmh 30.14 in1020.7 mb 0.00 in0.0 mm 0.00 in0.0 mm 0.00 in0.0 mm
05:50 PM 88.3°F31.3°C 52.1°F11.2°C 29% 4.6 mph SE7.4 kmh SE 11.4 mph18.3 kmh 30.14 in1020.7 mb 0.00 in0.0 mm 0.00 in0.0 mm 0.00 in0.0 mm
05:40 PM 87.6°F30.9°C 50.5°F10.3°C 28% 5.8 mph ESE9.3 kmh ESE 11.4 mph18.3 kmh 30.14 in1020.7 mb 0.00 in0.0 mm 0.00 in0.0 mm 0.00 in0.0 mm
05:30 PM 88.0°F31.1°C 49.9°F9.9°C 27% 6.5 mph ESE10.5 kmh ESE 13.0 mph20.9 kmh 30.14 in1020.7 mb 0.00 in0.0 mm 0.00 in0.0 mm 0.00 in0.0 mm
05:20 PM 87.8°F31.0°C 50.7°F10.4°C 28% 7.5 mph SE12.1 kmh SE 13.6 mph21.9 kmh 30.14 in1020.7 mb 0.00 in0.0 mm 0.00 in0.0 mm 0.00 in0.0 mm
05:10 PM 88.5°F31.4°C 50.3°F10.2°C 27% 6.5 mph SE10.5 kmh SE 13.6 mph21.9 kmh 30.14 in1020.7 mb 0.00 in0.0 mm 0.00 in0.0 mm 0.00 in0.0 mm
05:00 PM 89.2°F31.8°C 51.9°F11.1°C 28% 6.7 mph SE10.8 kmh SE 13.0 mph20.9 kmh 30.14 in1020.7 mb 0.00 in0.0 mm 0.00 in0.0 mm 0.00 in0.0 mm
04:50 PM 89.6°F32.0°C 50.2°F10.1°C 26% 6.5 mph SE10.5 kmh SE 12.1 mph19.5 kmh 30.14 in1020.7 mb 0.00 in0.0 mm 0.00 in0.0 mm 0.00 in0.0 mm
04:40 PM 88.7°F31.5°C 52.4°F11.3°C 29% 7.8 mph SE12.6 kmh SE 15.2 mph24.5 kmh 30.14 in1020.7 mb 0.00 in0.0 mm 0.00 in0.0 mm 0.00 in0.0 mm
04:30 PM 88.9°F31.6°C 51.6°F10.9°C 28% 7.6 mph SE12.2 kmh SE 14.5 mph23.3 kmh 30.14 in1020.7 mb 0.00 in0.0 mm 0.00 in0.0 mm 0.00 in0.0 mm
04:20 PM 89.8°F32.1°C 50.4°F10.2°C 26% 7.8 mph SE12.6 kmh SE 13.0 mph20.9 kmh 30.14 in1020.7 mb 0.00 in0.0 mm 0.00 in0.0 mm 0.00 in0.0 mm
04:10 PM 91.2°F32.9°C 48.3°F9.1°C 23% 6.6 mph SE10.6 kmh SE 13.0 mph20.9 kmh 30.14 in1020.7 mb 0.00 in0.0 mm 0.00 in0.0 mm 0.00 in0.0 mm
04:00 PM 91.2°F32.9°C 48.3°F9.1°C 23% 6.8 mph SE10.9 kmh SE 12.1 mph19.5 kmh 30.13 in1020.3 mb 0.00 in0.0 mm 0.00 in0.0 mm 0.00 in0.0 mm
03:50 PM 91.8°F33.2°C 51.0°F10.6°C 25% 5.9 mph SE9.5 kmh SE 11.4 mph18.3 kmh 30.13 in1020.3 mb 0.00 in0.0 mm 0.00 in0.0 mm 0.00 in0.0 mm
03:40 PM 92.5°F33.6°C 51.6°F10.9°C 25% 5.0 mph ESE8.0 kmh ESE 11.4 mph18.3 kmh 30.14 in1020.7 mb 0.00 in0.0 mm 0.00 in0.0 mm 0.00 in0.0 mm
03:30 PM 91.6°F33.1°C 51.9°F11.1°C 26% 6.5 mph ESE10.5 kmh ESE 13.0 mph20.9 kmh 30.14 in1020.7 mb 0.00 in0.0 mm 0.00 in0.0 mm 0.00 in0.0 mm
03:20 PM 91.8°F33.2°C 51.0°F10.6°C 25% 6.6 mph SE10.6 kmh SE 11.4 mph18.3 kmh 30.14 in1020.7 mb 0.00 in0.0 mm 0.00 in0.0 mm 0.00 in0.0 mm
03:10 PM 92.5°F33.6°C 50.5°F10.3°C 24% 6.1 mph SE9.8 kmh SE 12.1 mph19.5 kmh 30.14 in1020.7 mb 0.00 in0.0 mm 0.00 in0.0 mm 0.00 in0.0 mm
03:00 PM 92.8°F33.8°C 50.8°F10.4°C 24% 5.8 mph SE9.3 kmh SE 10.7 mph17.2 kmh 30.14 in1020.7 mb 0.00 in0.0 mm 0.00 in0.0 mm 0.00 in0.0 mm
02:50 PM 93.6°F34.2°C 51.4°F10.8°C 24% 5.5 mph SE8.9 kmh SE 10.7 mph17.2 kmh 30.14 in1020.7 mb 0.00 in0.0 mm 0.00 in0.0 mm 0.00 in0.0 mm
02:40 PM 93.9°F34.4°C 51.7°F10.9°C 24% 5.2 mph SE8.4 kmh SE 10.7 mph17.2 kmh 30.14 in1020.7 mb 0.00 in0.0 mm 0.00 in0.0 mm 0.00 in0.0 mm
02:30 PM 94.1°F34.5°C 50.7°F10.4°C 23% 5.0 mph SE8.0 kmh SE 10.7 mph17.2 kmh 30.14 in1020.7 mb 0.00 in0.0 mm 0.00 in0.0 mm 0.00 in0.0 mm
02:20 PM 94.1°F34.5°C 51.9°F11.1°C 24% 4.8 mph SE7.7 kmh SE 10.7 mph17.2 kmh 30.15 in1021.0 mb 0.00 in0.0 mm 0.00 in0.0 mm 0.00 in0.0 mm
02:10 PM 95.0°F35.0°C 51.5°F10.8°C 23% 3.7 mph SSE6.0 kmh SSE 9.8 mph15.8 kmh 30.15 in1021.0 mb 0.00 in0.0 mm 0.00 in0.0 mm 0.00 in0.0 mm
02:00 PM 92.8°F33.8°C 53.0°F11.7°C 26% 4.7 mph SE7.6 kmh SE 10.7 mph17.2 kmh 30.16 in1021.3 mb 0.00 in0.0 mm 0.00 in0.0 mm 0.00 in0.0 mm
01:50 PM 92.5°F33.6°C 52.7°F11.5°C 26% 5.2 mph SE8.4 kmh SE 10.7 mph17.2 kmh 30.16 in1021.3 mb 0.00 in0.0 mm 0.00 in0.0 mm 0.00 in0.0 mm
01:40 PM 92.8°F33.8°C 51.9°F11.1°C 25% 4.9 mph SE7.9 kmh SE 9.8 mph15.8 kmh 30.16 in1021.3 mb 0.00 in0.0 mm 0.00 in0.0 mm 0.00 in0.0 mm
01:30 PM 93.9°F34.4°C 51.7°F10.9°C 24% 4.3 mph SE6.9 kmh SE 10.7 mph17.2 kmh 30.16 in1021.3 mb 0.00 in0.0 mm 0.00 in0.0 mm 0.00 in0.0 mm
01:20 PM 94.6°F34.8°C 52.3°F11.3°C 24% 3.2 mph SE5.1 kmh SE 8.3 mph13.4 kmh 30.16 in1021.3 mb 0.00 in0.0 mm 0.00 in0.0 mm 0.00 in0.0 mm
01:10 PM 93.2°F34.0°C 51.1°F10.6°C 24% 4.7 mph SE7.6 kmh SE 10.7 mph17.2 kmh 30.16 in1021.3 mb 0.00 in0.0 mm 0.00 in0.0 mm 0.00 in0.0 mm
01:00 PM 93.7°F34.3°C 52.7°F11.5°C 25% 4.0 mph SE6.4 kmh SE 10.7 mph17.2 kmh 30.17 in1021.7 mb 0.00 in0.0 mm 0.00 in0.0 mm 0.00 in0.0 mm
12:50 PM 94.5°F34.7°C 54.3°F12.4°C 26% 2.9 mph SE4.7 kmh SE 6.9 mph11.1 kmh 30.17 in1021.7 mb 0.00 in0.0 mm 0.00 in0.0 mm 0.00 in0.0 mm
12:40 PM 93.6°F34.2°C 51.4°F10.8°C 24% 3.4 mph SE5.5 kmh SE 7.6 mph12.2 kmh 30.18 in1022.0 mb 0.00 in0.0 mm 0.00 in0.0 mm 0.00 in0.0 mm
12:30 PM 93.6°F34.2°C 52.5°F11.4°C 25% 3.5 mph SE5.6 kmh SE 7.6 mph12.2 kmh 30.18 in1022.0 mb 0.00 in0.0 mm 0.00 in0.0 mm 0.00 in0.0 mm
12:20 PM 93.0°F33.9°C 57.1°F13.9°C 30% 3.3 mph SE5.3 kmh SE 6.9 mph11.1 kmh 30.19 in1022.4 mb 0.00 in0.0 mm 0.00 in0.0 mm 0.00 in0.0 mm
12:10 PM 91.9°F33.3°C 57.9°F14.4°C 32% 3.2 mph ESE5.1 kmh ESE 6.9 mph11.1 kmh 30.19 in1022.4 mb 0.00 in0.0 mm 0.00 in0.0 mm 0.00 in0.0 mm
12:00 PM 91.8°F33.2°C 57.8°F14.3°C 32% 3.4 mph SE5.5 kmh SE 6.9 mph11.1 kmh 30.20 in1022.7 mb 0.00 in0.0 mm 0.00 in0.0 mm 0.00 in0.0 mm
11:50 AM 91.0°F32.8°C 56.3°F13.5°C 31% 3.1 mph SE5.0 kmh SE 6.9 mph11.1 kmh 30.20 in1022.7 mb 0.00 in0.0 mm 0.00 in0.0 mm 0.00 in0.0 mm
11:40 AM 89.8°F32.1°C 56.0°F13.3°C 32% 2.9 mph SE4.7 kmh SE 6.0 mph9.7 kmh 30.21 in1023.0 mb 0.00 in0.0 mm 0.00 in0.0 mm 0.00 in0.0 mm
11:30 AM 88.3°F31.3°C 60.3°F15.7°C 39% 2.1 mph ESE3.4 kmh ESE 5.4 mph8.7 kmh 30.22 in1023.4 mb 0.00 in0.0 mm 0.00 in0.0 mm 0.00 in0.0 mm
11:20 AM 86.0°F30.0°C 58.9°F14.9°C 40% 2.7 mph SE4.3 kmh SE 6.0 mph9.7 kmh 30.22 in1023.4 mb 0.00 in0.0 mm 0.00 in0.0 mm 0.00 in0.0 mm
11:10 AM 84.0°F28.9°C 59.2°F15.1°C 43% 2.7 mph SE4.3 kmh SE 6.9 mph11.1 kmh 30.22 in1023.4 mb 0.00 in0.0 mm 0.00 in0.0 mm 0.00 in0.0 mm
11:00 AM 84.0°F28.9°C 59.2°F15.1°C 43% 2.9 mph SE4.7 kmh SE 9.2 mph14.8 kmh 30.22 in1023.4 mb 0.00 in0.0 mm 0.00 in0.0 mm 0.00 in0.0 mm
10:50 AM 84.2°F29.0°C 60.6°F15.9°C 45% 1.9 mph ESE3.1 kmh ESE 6.9 mph11.1 kmh 30.22 in1023.4 mb 0.00 in0.0 mm 0.00 in0.0 mm 0.00 in0.0 mm
10:40 AM 82.8°F28.2°C 60.5°F15.8°C 47% 2.2 mph S3.5 kmh S 6.9 mph11.1 kmh 30.22 in1023.4 mb 0.00 in0.0 mm 0.00 in0.0 mm 0.00 in0.0 mm
10:30 AM 83.1°F28.4°C 59.6°F15.3°C 45% 2.6 mph SSE4.2 kmh SSE 5.4 mph8.7 kmh 30.22 in1023.4 mb 0.00 in0.0 mm 0.00 in0.0 mm 0.00 in0.0 mm
10:20 AM 84.2°F29.0°C 60.6°F15.9°C 45% 2.1 mph S3.4 kmh S 7.6 mph12.2 kmh 30.22 in1023.4 mb 0.00 in0.0 mm 0.00 in0.0 mm 0.00 in0.0 mm
10:10 AM 83.8°F28.8°C 59.6°F15.3°C 44% 1.6 mph S2.6 kmh S 5.4 mph8.7 kmh 30.22 in1023.4 mb 0.00 in0.0 mm 0.00 in0.0 mm 0.00 in0.0 mm
10:00 AM 83.3°F28.5°C 58.5°F14.7°C 43% 1.7 mph S2.7 kmh S 4.5 mph7.2 kmh 30.22 in1023.4 mb 0.00 in0.0 mm 0.00 in0.0 mm 0.00 in0.0 mm
09:50 AM 82.2°F27.9°C 57.5°F14.2°C 43% 1.8 mph S2.9 kmh S 5.4 mph8.7 kmh 30.22 in1023.4 mb 0.00 in0.0 mm 0.00 in0.0 mm 0.00 in0.0 mm
09:40 AM 82.9°F28.3°C 58.8°F14.9°C 44% 1.6 mph SSE2.6 kmh SSE 5.4 mph8.7 kmh 30.22 in1023.4 mb 0.00 in0.0 mm 0.00 in0.0 mm 0.00 in0.0 mm
09:30 AM 82.9°F28.3°C 58.8°F14.9°C 44% 1.6 mph SE2.6 kmh SE 4.5 mph7.2 kmh 30.22 in1023.4 mb 0.00 in0.0 mm 0.00 in0.0 mm 0.00 in0.0 mm
09:20 AM 82.9°F28.3°C 59.5°F15.3°C 45% 1.2 mph SSE1.9 kmh SSE 3.8 mph6.1 kmh 30.22 in1023.4 mb 0.00 in0.0 mm 0.00 in0.0 mm 0.00 in0.0 mm
09:10 AM 83.1°F28.4°C 59.6°F15.3°C 45% 1.8 mph SSE2.9 kmh SSE 6.0 mph9.7 kmh 30.22 in1023.4 mb 0.00 in0.0 mm 0.00 in0.0 mm 0.00 in0.0 mm
09:00 AM 87.1°F30.6°C 59.2°F15.1°C 39% 0.8 mph SE1.3 kmh SE 3.8 mph6.1 kmh 30.22 in1023.4 mb 0.00 in0.0 mm 0.00 in0.0 mm 0.00 in0.0 mm
08:50 AM 85.5°F29.7°C 58.4°F14.7°C 40% 0.7 mph SW1.1 kmh SW 3.8 mph6.1 kmh 30.21 in1023.0 mb 0.00 in0.0 mm 0.00 in0.0 mm 0.00 in0.0 mm
08:40 AM 85.1°F29.5°C 58.8°F14.9°C 41% 0.3 mph SSW0.5 kmh SSW 3.1 mph5.0 kmh 30.21 in1023.0 mb 0.00 in0.0 mm 0.00 in0.0 mm 0.00 in0.0 mm
08:30 AM 82.2°F27.9°C 58.8°F14.9°C 45% 1.1 mph NNE1.8 kmh NNE 3.8 mph6.1 kmh 30.21 in1023.0 mb 0.00 in0.0 mm 0.00 in0.0 mm 0.00 in0.0 mm
08:20 AM 79.5°F26.4°C 58.7°F14.8°C 49% 1.3 mph NNE2.1 kmh NNE 9.8 mph15.8 kmh 30.21 in1023.0 mb 0.00 in0.0 mm 0.00 in0.0 mm 0.00 in0.0 mm
08:10 AM 77.7°F25.4°C 58.2°F14.6°C 51% 0.4 mph NW0.6 kmh NW 3.1 mph5.0 kmh 30.20 in1022.7 mb 0.00 in0.0 mm 0.00 in0.0 mm 0.00 in0.0 mm
08:00 AM 78.1°F25.6°C 59.6°F15.3°C 53% 0.5 mph N0.8 kmh N 3.8 mph6.1 kmh 30.20 in1022.7 mb 0.00 in0.0 mm 0.00 in0.0 mm 0.00 in0.0 mm
07:50 AM 74.1°F23.4°C 59.4°F15.2°C 60% 0.1 mph WNW0.2 kmh WNW 2.2 mph3.5 kmh 30.19 in1022.4 mb 0.00 in0.0 mm 0.00 in0.0 mm 0.00 in0.0 mm
07:40 AM 73.4°F23.0°C 58.7°F14.8°C 60% 0.6 mph W1.0 kmh W 3.1 mph5.0 kmh 30.19 in1022.4 mb 0.00 in0.0 mm 0.00 in0.0 mm 0.00 in0.0 mm
07:30 AM 74.1°F23.4°C 58.9°F14.9°C 59% 0.5 mph NW0.8 kmh NW 2.2 mph3.5 kmh 30.19 in1022.4 mb 0.00 in0.0 mm 0.00 in0.0 mm 0.00 in0.0 mm
07:20 AM 73.8°F23.2°C 60.0°F15.6°C 62% 0.1 mph N0.2 kmh N 1.6 mph2.6 kmh 30.19 in1022.4 mb 0.00 in0.0 mm 0.00 in0.0 mm 0.00 in0.0 mm
07:10 AM 70.9°F21.6°C 59.0°F15.0°C 66% 0.7 mph NNE1.1 kmh NNE 3.1 mph5.0 kmh 30.18 in1022.0 mb 0.00 in0.0 mm 0.00 in0.0 mm 0.00 in0.0 mm
07:00 AM 68.9°F20.5°C 58.7°F14.8°C 70% 1.2 mph N1.9 kmh N 3.8 mph6.1 kmh 30.18 in1022.0 mb 0.00 in0.0 mm 0.00 in0.0 mm 0.00 in0.0 mm
06:50 AM 66.9°F19.4°C 58.4°F14.7°C 74% 1.0 mph NE1.6 kmh NE 3.8 mph6.1 kmh 30.18 in1022.0 mb 0.00 in0.0 mm 0.00 in0.0 mm 0.00 in0.0 mm
06:40 AM 64.8°F18.2°C 58.1°F14.5°C 79% 2.3 mph NNE3.7 kmh NNE 5.4 mph8.7 kmh 30.18 in1022.0 mb 0.00 in0.0 mm 0.00 in0.0 mm 0.00 in0.0 mm
06:30 AM 63.3°F17.4°C 57.1°F13.9°C 80% 3.1 mph NNE5.0 kmh NNE 5.4 mph8.7 kmh 30.17 in1021.7 mb 0.00 in0.0 mm 0.00 in0.0 mm 0.00 in0.0 mm
06:20 AM 62.8°F17.1°C 56.9°F13.8°C 81% 3.1 mph NE5.0 kmh NE 5.4 mph8.7 kmh 30.17 in1021.7 mb 0.00 in0.0 mm 0.00 in0.0 mm 0.00 in0.0 mm
06:10 AM 62.6°F17.0°C 57.0°F13.9°C 82% 2.2 mph NNE3.5 kmh NNE 5.4 mph8.7 kmh 30.17 in1021.7 mb 0.00 in0.0 mm 0.00 in0.0 mm 0.00 in0.0 mm
06:00 AM 61.7°F16.5°C 56.8°F13.8°C 84% 0.9 mph NNE1.4 kmh NNE 3.8 mph6.1 kmh 30.17 in1021.7 mb 0.00 in0.0 mm 0.00 in0.0 mm 0.00 in0.0 mm
05:50 AM 61.7°F16.5°C 56.2°F13.4°C 82% 0.1 mph NE0.2 kmh NE 1.6 mph2.6 kmh 30.17 in1021.7 mb 0.00 in0.0 mm 0.00 in0.0 mm 0.00 in0.0 mm
05:40 AM 62.6°F17.0°C 56.7°F13.7°C 81% 0.3 mph NNE0.5 kmh NNE 2.2 mph3.5 kmh 30.17 in1021.7 mb 0.00 in0.0 mm 0.00 in0.0 mm 0.00 in0.0 mm
05:30 AM 63.0°F17.2°C 57.1°F13.9°C 81% 1.4 mph N2.3 kmh N 5.4 mph8.7 kmh 30.17 in1021.7 mb 0.00 in0.0 mm 0.00 in0.0 mm 0.00 in0.0 mm
05:20 AM 63.1°F17.3°C 57.2°F14.0°C 81% 1.7 mph NNE2.7 kmh NNE 5.4 mph8.7 kmh 30.16 in1021.3 mb 0.00 in0.0 mm 0.00 in0.0 mm 0.00 in0.0 mm
05:10 AM 63.5°F17.5°C 57.2°F14.0°C 80% 0.5 mph NNE0.8 kmh NNE 3.1 mph5.0 kmh 30.16 in1021.3 mb 0.00 in0.0 mm 0.00 in0.0 mm 0.00 in0.0 mm
05:00 AM 63.9°F17.7°C 57.9°F14.4°C 81% 2.7 mph NNE4.3 kmh NNE 5.4 mph8.7 kmh 30.16 in1021.3 mb 0.00 in0.0 mm 0.00 in0.0 mm 0.00 in0.0 mm
04:50 AM 64.0°F17.8°C 58.1°F14.5°C 81% 2.9 mph NNE4.7 kmh NNE 5.4 mph8.7 kmh 30.16 in1021.3 mb 0.00 in0.0 mm 0.00 in0.0 mm 0.00 in0.0 mm
04:40 AM 64.2°F17.9°C 57.9°F14.4°C 80% 2.2 mph NE3.5 kmh NE 5.4 mph8.7 kmh 30.16 in1021.3 mb 0.00 in0.0 mm 0.00 in0.0 mm 0.00 in0.0 mm
04:30 AM 64.6°F18.1°C 58.6°F14.8°C 81% 1.8 mph NNE2.9 kmh NNE 3.8 mph6.1 kmh 30.16 in1021.3 mb 0.00 in0.0 mm 0.00 in0.0 mm 0.00 in0.0 mm
04:20 AM 64.8°F18.2°C 58.8°F14.9°C 81% 2.6 mph NNE4.2 kmh NNE 5.4 mph8.7 kmh 30.16 in1021.3 mb 0.00 in0.0 mm 0.00 in0.0 mm 0.00 in0.0 mm
04:10 AM 65.3°F18.5°C 59.0°F15.0°C 80% 3.3 mph NNE5.3 kmh NNE 6.9 mph11.1 kmh 30.16 in1021.3 mb 0.00 in0.0 mm 0.00 in0.0 mm 0.00 in0.0 mm
04:00 AM 65.5°F18.6°C 59.5°F15.3°C 81% 3.8 mph NE6.1 kmh NE 6.9 mph11.1 kmh 30.16 in1021.3 mb 0.00 in0.0 mm 0.00 in0.0 mm 0.00 in0.0 mm
03:50 AM 65.3°F18.5°C 59.3°F15.2°C 81% 3.5 mph NE5.6 kmh NE 7.6 mph12.2 kmh 30.16 in1021.3 mb 0.00 in0.0 mm 0.00 in0.0 mm 0.00 in0.0 mm
03:40 AM 64.9°F18.3°C 59.0°F15.0°C 81% 1.6 mph NNE2.6 kmh NNE 5.4 mph8.7 kmh 30.16 in1021.3 mb 0.00 in0.0 mm 0.00 in0.0 mm 0.00 in0.0 mm
03:30 AM 65.3°F18.5°C 58.6°F14.8°C 79% 0.5 mph N0.8 kmh N 2.2 mph3.5 kmh 30.17 in1021.7 mb 0.00 in0.0 mm 0.00 in0.0 mm 0.00 in0.0 mm
03:20 AM 65.8°F18.8°C 59.2°F15.1°C 79% 1.8 mph NNE2.9 kmh NNE 3.8 mph6.1 kmh 30.17 in1021.7 mb 0.00 in0.0 mm 0.00 in0.0 mm 0.00 in0.0 mm
03:10 AM 66.2°F19.0°C 59.5°F15.3°C 79% 3.0 mph NE4.8 kmh NE 6.9 mph11.1 kmh 30.17 in1021.7 mb 0.00 in0.0 mm 0.00 in0.0 mm 0.00 in0.0 mm
03:00 AM 65.8°F18.8°C 59.5°F15.3°C 80% 2.3 mph NNE3.7 kmh NNE 6.0 mph9.7 kmh 30.17 in1021.7 mb 0.00 in0.0 mm 0.00 in0.0 mm 0.00 in0.0 mm
02:50 AM 66.2°F19.0°C 59.2°F15.1°C 78% 1.6 mph NNE2.6 kmh NNE 3.1 mph5.0 kmh 30.17 in1021.7 mb 0.00 in0.0 mm 0.00 in0.0 mm 0.00 in0.0 mm
02:40 AM 66.6°F19.2°C 59.5°F15.3°C 78% 1.4 mph NE2.3 kmh NE 5.4 mph8.7 kmh 30.17 in1021.7 mb 0.00 in0.0 mm 0.00 in0.0 mm 0.00 in0.0 mm
02:30 AM 66.6°F19.2°C 59.5°F15.3°C 78% 2.3 mph N3.7 kmh N 5.4 mph8.7 kmh 30.18 in1022.0 mb 0.00 in0.0 mm 0.00 in0.0 mm 0.00 in0.0 mm
02:20 AM 66.4°F19.1°C 59.3°F15.2°C 78% 1.3 mph NNE2.1 kmh NNE 3.8 mph6.1 kmh 30.18 in1022.0 mb 0.00 in0.0 mm 0.00 in0.0 mm 0.00 in0.0 mm
02:10 AM 66.2°F19.0°C 58.8°F14.9°C 77% 1.3 mph NE2.1 kmh NE 3.8 mph6.1 kmh 30.18 in1022.0 mb 0.00 in0.0 mm 0.00 in0.0 mm 0.00 in0.0 mm
02:00 AM 65.7°F18.7°C 59.0°F15.0°C 79% 1.1 mph NE1.8 kmh NE 3.8 mph6.1 kmh 30.18 in1022.0 mb 0.00 in0.0 mm 0.00 in0.0 mm 0.00 in0.0 mm
01:50 AM 65.3°F18.5°C 57.6°F14.2°C 76% Calm Calm 1.6 mph2.6 kmh 30.18 in1022.0 mb 0.00 in0.0 mm 0.00 in0.0 mm 0.00 in0.0 mm
01:40 AM 66.0°F18.9°C 57.9°F14.4°C 75% 0.9 mph NNE1.4 kmh NNE 3.1 mph5.0 kmh 30.18 in1022.0 mb 0.00 in0.0 mm 0.00 in0.0 mm 0.00 in0.0 mm
01:30 AM 66.2°F19.0°C 58.1°F14.5°C 75% 1.8 mph NNE2.9 kmh NNE 4.5 mph7.2 kmh 30.19 in1022.4 mb 0.00 in0.0 mm 0.00 in0.0 mm 0.00 in0.0 mm
01:20 AM 65.8°F18.8°C 57.7°F14.3°C 75% 1.6 mph NNE2.6 kmh NNE 5.4 mph8.7 kmh 30.19 in1022.4 mb 0.00 in0.0 mm 0.00 in0.0 mm 0.00 in0.0 mm
01:10 AM 66.4°F19.1°C 57.1°F13.9°C 72% 0.4 mph N0.6 kmh N 2.2 mph3.5 kmh 30.19 in1022.4 mb 0.00 in0.0 mm 0.00 in0.0 mm 0.00 in0.0 mm
01:00 AM 66.9°F19.4°C 57.6°F14.2°C 72% 1.2 mph NE1.9 kmh NE 3.8 mph6.1 kmh 30.20 in1022.7 mb 0.00 in0.0 mm 0.00 in0.0 mm 0.00 in0.0 mm
12:50 AM 67.8°F19.9°C 58.1°F14.5°C 71% 1.5 mph NNE2.4 kmh NNE 5.4 mph8.7 kmh 30.20 in1022.7 mb 0.00 in0.0 mm 0.00 in0.0 mm 0.00 in0.0 mm
12:40 AM 67.8°F19.9°C 58.1°F14.5°C 71% 2.6 mph NNE4.2 kmh NNE 5.4 mph8.7 kmh 30.20 in1022.7 mb 0.00 in0.0 mm 0.00 in0.0 mm 0.00 in0.0 mm
12:30 AM 67.5°F19.7°C 57.8°F14.3°C 71% 2.3 mph NNE3.7 kmh NNE 4.5 mph7.2 kmh 30.20 in1022.7 mb 0.00 in0.0 mm 0.00 in0.0 mm 0.00 in0.0 mm
12:20 AM 67.5°F19.7°C 57.8°F14.3°C 71% 1.7 mph N2.7 kmh N 3.1 mph5.0 kmh 30.20 in1022.7 mb 0.00 in0.0 mm 0.00 in0.0 mm 0.00 in0.0 mm
12:10 AM 68.0°F20.0°C 57.9°F14.4°C 70% 0.7 mph NNE1.1 kmh NNE 3.1 mph5.0 kmh 30.20 in1022.7 mb 0.00 in0.0 mm 0.00 in0.0 mm 0.00 in0.0 mm
12:00 AM 68.2°F20.1°C 58.4°F14.7°C 71% 1.2 mph NE1.9 kmh NE 4.5 mph7.2 kmh 30.21 in1023.0 mb 0.00 in0.0 mm 0.00 in0.0 mm 0.00 in0.0 mm